Time;durP1;ratioP1;P1;durP2;ratioP2;P2;SDS_P1;SDS_P2;PMS_P1;PMS_P2;Temp;Humidity;BMP_temperature;BMP_pressure;BME280_temperature;BME280_humidity;BME280_pressure;Samples;Min_cycle;Max_cycle;Signal;HPM_P1;HPM_P2
2022/10/05 00:01:48;;;;;;;;;;;;;;;7.26;96.00;99799.44;8225536;28;19949;-77
2022/10/05 00:05:49;;;;;;;;;;;;;;;7.23;96.37;99795.09;8214089;28;19984;-76
2022/10/05 00:09:55;;;;;;;;;;;;;;;7.25;96.85;99787.38;8231390;28;19992;-76
2022/10/05 00:14:11;;;;;;;;;;;;;;;7.27;97.07;99789.13;8230217;28;19927;-76
2022/10/05 00:18:17;;;;;;;;;;;;;;;7.28;97.25;99795.16;8224025;28;19926;-76
2022/10/05 00:22:29;;;;;;;;;;;;;;;7.31;97.79;99790.03;8224849;28;19980;-76
2022/10/05 00:26:31;;;;;;;;;;;;;;;7.29;97.70;99796.88;8227174;28;19933;-76
2022/10/05 00:30:33;;;;;;;;;;;;;;;7.33;97.65;99796.09;8206687;28;20314;-76
2022/10/05 00:34:34;;;;;;;;;;;;;;;7.35;97.95;99791.81;8228682;28;20005;-76
2022/10/05 00:38:36;;;;;;;;;;;;;;;7.36;98.03;99800.44;8224896;28;19926;-76
2022/10/05 00:42:45;;;;;;;;;;;;;;;7.41;98.23;99788.47;8222584;28;19933;-76
2022/10/05 00:46:55;;;;;;;;;;;;;;;7.40;98.25;99792.75;8225239;28;20311;-76
2022/10/05 00:51:16;;;;;;;;;;;;;;;7.44;98.65;99791.09;8234296;28;19952;-76
2022/10/05 00:55:31;;;;;;;;;;;;;;;7.41;98.73;99788.47;8232522;28;19952;-76
2022/10/05 00:59:35;;;;;;;;;;;;;;;7.44;98.47;99793.66;8238553;28;19933;-76
2022/10/05 01:03:59;;;;;;;;;;;;;;;7.42;98.78;99796.25;8233601;28;19932;-76
2022/10/05 01:08:13;;;;;;;;;;;;;;;7.39;98.89;99787.59;8232167;28;19925;-76
2022/10/05 01:12:39;;;;;;;;;;;;;;;7.34;98.85;99784.03;8220543;28;19930;-76
2022/10/05 01:16:47;;;;;;;;;;;;;;;7.27;98.51;99794.28;8214037;28;19933;-76
2022/10/05 01:21:02;;;;;;;;;;;;;;;7.26;98.45;99789.97;8221680;28;19969;-76
2022/10/05 01:25:25;;;;;;;;;;;;;;;7.20;98.11;99784.72;8237554;28;19980;-76
2022/10/05 01:29:34;;;;;;;;;;;;;;;7.18;98.31;99791.59;8226329;28;19977;-76
2022/10/05 01:33:47;;;;;;;;;;;;;;;7.20;98.78;99781.28;8230461;28;19987;-76
2022/10/05 01:38:15;;;;;;;;;;;;;;;7.19;98.96;99782.13;8228825;28;19926;-76
2022/10/05 01:42:46;;;;;;;;;;;;;;;7.24;100.00;99786.50;8202269;28;19930;-76
2022/10/05 01:46:56;;;;;;;;;;;;;;;7.33;100.00;99780.59;8172296;28;20024;-76
2022/10/05 01:51:10;;;;;;;;;;;;;;;7.34;100.00;99764.25;8214022;28;19926;-76
2022/10/05 01:55:26;;;;;;;;;;;;;;;7.38;100.00;99762.59;8211695;28;19945;-76
2022/10/05 01:59:43;;;;;;;;;;;;;;;7.44;100.00;99763.53;8230548;28;20434;-76
2022/10/05 02:03:54;;;;;;;;;;;;;;;7.54;100.00;99767.09;8224444;28;19996;-77
2022/10/05 02:08:16;;;;;;;;;;;;;;;7.52;100.00;99750.72;8202643;28;20750;-76
2022/10/05 02:12:18;;;;;;;;;;;;;;;7.56;100.00;99740.47;8236004;28;19926;-77
2022/10/05 02:16:42;;;;;;;;;;;;;;;7.62;100.00;99731.91;8220260;28;19953;-76
2022/10/05 02:20:51;;;;;;;;;;;;;;;7.68;100.00;99731.13;8231399;28;19980;-77
2022/10/05 02:24:58;;;;;;;;;;;;;;;7.74;100.00;99726.03;8225263;28;19930;-77
2022/10/05 02:29:02;;;;;;;;;;;;;;;7.78;100.00;99726.09;8215551;28;19926;-76
2022/10/05 02:33:08;;;;;;;;;;;;;;;7.85;100.00;99727.03;8229458;28;19980;-77
2022/10/05 02:37:19;;;;;;;;;;;;;;;7.90;100.00;99715.03;8215848;28;19930;-77
2022/10/05 02:41:27;;;;;;;;;;;;;;;7.94;100.00;99713.34;8209777;28;19980;-77
2022/10/05 02:45:34;;;;;;;;;;;;;;;7.99;100.00;99711.66;8230352;28;20287;-77
2022/10/05 02:49:42;;;;;;;;;;;;;;;8.01;100.00;99710.84;8231345;28;19937;-77
2022/10/05 02:54:09;;;;;;;;;;;;;;;8.03;100.00;99711.72;8234824;28;19980;-77
2022/10/05 02:58:13;;;;;;;;;;;;;;;8.02;100.00;99709.13;8200537;28;19980;-77
2022/10/05 03:02:21;;;;;;;;;;;;;;;8.01;100.00;99703.06;8207475;28;19925;-77
2022/10/05 03:06:27;;;;;;;;;;;;;;;8.04;100.00;99705.69;8229691;28;19922;-77
2022/10/05 03:10:36;;;;;;;;;;;;;;;8.00;100.00;99709.09;8228229;28;19925;-77
2022/10/05 03:14:56;;;;;;;;;;;;;;;7.96;100.00;99709.94;8202058;28;19930;-77
2022/10/05 03:19:09;;;;;;;;;;;;;;;7.95;100.00;99715.09;8225807;28;19926;-76
2022/10/05 03:23:34;;;;;;;;;;;;;;;7.96;100.00;99722.00;8214599;28;19929;-77
2022/10/05 03:27:42;;;;;;;;;;;;;;;8.02;100.00;99716.88;8225275;28;19929;-77
2022/10/05 03:31:50;;;;;;;;;;;;;;;8.08;100.00;99714.38;8221967;28;20676;-77
2022/10/05 03:36:05;;;;;;;;;;;;;;;8.12;100.00;99710.97;8223131;28;19926;-76
2022/10/05 03:40:06;;;;;;;;;;;;;;;8.16;100.00;99721.34;8226401;28;19930;-76
2022/10/05 03:44:25;;;;;;;;;;;;;;;8.20;100.00;99717.06;8237045;28;20000;-76
2022/10/05 03:48:26;;;;;;;;;;;;;;;8.23;100.00;99714.50;8212307;28;19934;-76
2022/10/05 03:52:35;;;;;;;;;;;;;;;8.28;100.00;99717.16;8227006;28;19933;-77
2022/10/05 03:56:46;;;;;;;;;;;;;;;8.28;100.00;99712.84;8231007;28;19926;-76
2022/10/05 04:00:51;;;;;;;;;;;;;;;8.32;100.00;99714.63;8230178;28;19977;-77
2022/10/05 04:05:02;;;;;;;;;;;;;;;8.31;100.00;99706.84;8231933;28;19926;-76
2022/10/05 04:09:15;;;;;;;;;;;;;;;8.32;100.00;99712.03;8229516;28;19994;-76
2022/10/05 04:13:20;;;;;;;;;;;;;;;8.38;100.00;99708.66;8234631;28;20414;-77
2022/10/05 04:17:30;;;;;;;;;;;;;;;8.35;100.00;99721.56;8226257;28;19926;-77
2022/10/05 04:21:36;;;;;;;;;;;;;;;8.36;100.00;99716.41;8237061;28;19988;-77
2022/10/05 04:25:45;;;;;;;;;;;;;;;8.40;100.00;99709.53;8216360;28;19936;-77
2022/10/05 04:29:57;;;;;;;;;;;;;;;8.41;100.00;99709.53;8209240;28;19926;-77
2022/10/05 04:34:03;;;;;;;;;;;;;;;8.43;100.00;99707.84;8225484;28;19926;-77
2022/10/05 04:38:23;;;;;;;;;;;;;;;8.43;100.00;99707.84;8208363;28;19984;-77
2022/10/05 04:42:30;;;;;;;;;;;;;;;8.43;100.00;99699.19;8227771;28;20434;-77
2022/10/05 04:46:40;;;;;;;;;;;;;;;8.42;100.00;99700.94;8205498;28;19975;-77
2022/10/05 04:50:46;;;;;;;;;;;;;;;8.40;100.00;99704.34;8231459;28;20033;-77
2022/10/05 04:54:48;;;;;;;;;;;;;;;8.35;100.00;99700.88;8225779;28;19989;-77
2022/10/05 04:58:49;;;;;;;;;;;;;;;8.29;100.00;99705.97;8233697;28;19989;-77
2022/10/05 05:03:00;;;;;;;;;;;;;;;8.32;100.00;99711.16;8225979;28;20008;-77
2022/10/05 05:07:01;;;;;;;;;;;;;;;8.33;100.00;99708.59;8228887;28;19922;-76
2022/10/05 05:11:16;;;;;;;;;;;;;;;8.37;100.00;99710.38;8213941;28;20971;-77
2022/10/05 05:15:24;;;;;;;;;;;;;;;8.48;100.00;99718.25;8226003;28;19965;-77
2022/10/05 05:19:40;;;;;;;;;;;;;;;8.60;100.00;99722.66;8206452;28;19925;-76
2022/10/05 05:24:04;;;;;;;;;;;;;;;8.78;100.00;99733.16;8225941;28;20343;-77
2022/10/05 05:28:17;;;;;;;;;;;;;;;8.94;100.00;99735.00;8221406;28;19932;-76
2022/10/05 05:32:29;;;;;;;;;;;;;;;9.07;100.00;99733.41;8226981;28;19929;-76
2022/10/05 05:36:36;;;;;;;;;;;;;;;9.14;100.00;99734.28;8227639;28;20425;-77
2022/10/05 05:40:46;;;;;;;;;;;;;;;9.21;100.00;99733.50;8226558;28;19929;-77
2022/10/05 05:44:56;;;;;;;;;;;;;;;9.27;100.00;99736.13;8229810;28;19959;-77
2022/10/05 05:49:02;;;;;;;;;;;;;;;9.33;100.00;99739.59;8225767;28;19933;-77
2022/10/05 05:53:06;;;;;;;;;;;;;;;9.37;100.00;99732.75;8227026;28;20347;-77
2022/10/05 05:57:20;;;;;;;;;;;;;;;9.42;100.00;99748.31;8230619;28;19968;-77
2022/10/05 06:01:23;;;;;;;;;;;;;;;9.46;100.00;99745.72;8231799;28;19926;-77
2022/10/05 06:05:40;;;;;;;;;;;;;;;9.49;100.00;99745.75;8233484;28;19929;-77
2022/10/05 06:09:45;;;;;;;;;;;;;;;9.55;100.00;99756.16;8222914;28;19933;-77
2022/10/05 06:13:56;;;;;;;;;;;;;;;9.63;100.00;99756.19;8222360;28;20032;-78
2022/10/05 06:18:01;;;;;;;;;;;;;;;9.71;100.00;99767.50;8219525;28;19988;-78
2022/10/05 06:22:06;;;;;;;;;;;;;;;9.77;100.00;99764.91;8198531;28;19936;-77
2022/10/05 06:26:12;;;;;;;;;;;;;;;9.84;100.00;99766.66;8231505;28;20033;-78
2022/10/05 06:30:15;;;;;;;;;;;;;;;9.92;100.00;99767.59;8222929;28;19934;-77
2022/10/05 06:34:29;;;;;;;;;;;;;;;9.98;100.00;99769.31;8238286;28;20355;-77
2022/10/05 06:38:47;;;;;;;;;;;;;;;10.06;100.00;99771.97;8234166;28;19981;-78
2022/10/05 06:43:15;;;;;;;;;;;;;;;10.14;100.00;99763.34;8236735;28;19926;-77
2022/10/05 06:47:22;;;;;;;;;;;;;;;10.25;100.00;99771.19;8225708;28;19938;-78
2022/10/05 06:51:41;;;;;;;;;;;;;;;10.35;100.00;99770.34;8218570;28;19930;-77
2022/10/05 06:55:50;;;;;;;;;;;;;;;10.44;100.00;99766.91;8229357;28;20355;-77
2022/10/05 06:59:54;;;;;;;;;;;;;;;10.55;100.00;99767.78;8218675;28;19996;-78
2022/10/05 07:04:03;;;;;;;;;;;;;;;10.66;100.00;99763.50;8243139;28;19933;-79
2022/10/05 07:08:19;;;;;;;;;;;;;;;10.78;100.00;99765.25;8223067;28;19985;-78
2022/10/05 07:12:35;;;;;;;;;;;;;;;10.86;100.00;99766.09;8241429;28;19926;-78
2022/10/05 07:16:36;;;;;;;;;;;;;;;10.95;100.00;99770.41;8224921;28;19934;-78
2022/10/05 07:20:46;;;;;;;;;;;;;;;11.05;100.00;99767.84;8240286;28;20580;-76
2022/10/05 07:24:56;;;;;;;;;;;;;;;11.19;100.00;99768.69;8242859;28;19937;-78
2022/10/05 07:28:58;;;;;;;;;;;;;;;11.25;100.00;99770.41;8240339;28;20284;-78
2022/10/05 07:33:22;;;;;;;;;;;;;;;11.35;100.00;99761.75;8243606;28;19999;-77
2022/10/05 07:37:53;;;;;;;;;;;;;;;11.50;100.00;99759.13;8239547;28;19933;-77
2022/10/05 07:42:02;;;;;;;;;;;;;;;11.67;100.00;99761.69;8242881;28;19925;-78
2022/10/05 07:46:15;;;;;;;;;;;;;;;11.74;100.00;99758.19;8240697;28;19929;-76
2022/10/05 07:50:34;;;;;;;;;;;;;;;11.89;100.00;99759.91;8242939;28;19937;-76
2022/10/05 07:54:55;;;;;;;;;;;;;;;12.02;100.00;99769.38;8236537;28;20329;-76
2022/10/05 07:58:59;;;;;;;;;;;;;;;12.09;100.00;99762.41;8242733;28;19988;-76
2022/10/05 08:03:14;;;;;;;;;;;;;;;12.19;100.00;99765.81;8233967;28;20268;-77
2022/10/05 08:07:16;;;;;;;;;;;;;;;12.32;100.00;99768.38;8216229;28;20343;-78
2022/10/05 08:11:33;;;;;;;;;;;;;;;12.44;100.00;99759.63;8237204;28;20729;-77
2022/10/05 08:15:41;;;;;;;;;;;;;;;12.52;100.00;99763.03;8230859;28;19922;-77
2022/10/05 08:19:55;;;;;;;;;;;;;;;12.58;100.00;99763.00;8229632;28;19926;-77
2022/10/05 08:24:01;;;;;;;;;;;;;;;12.61;100.00;99762.13;8231156;28;19934;-76
2022/10/05 08:28:11;;;;;;;;;;;;;;;12.66;100.00;99758.59;8237981;28;19926;-77
2022/10/05 08:32:17;;;;;;;;;;;;;;;12.70;100.00;99755.09;8227528;28;19926;-76
2022/10/05 08:36:23;;;;;;;;;;;;;;;12.85;100.00;99763.69;8228630;28;20000;-77
2022/10/05 08:40:38;;;;;;;;;;;;;;;12.94;100.00;99748.84;8239235;28;19976;-76
2022/10/05 08:44:39;;;;;;;;;;;;;;;13.04;100.00;99752.22;8210991;28;20747;-76
2022/10/05 08:48:59;;;;;;;;;;;;;;;13.12;100.00;99762.59;8211186;28;20571;-77
2022/10/05 08:53:11;;;;;;;;;;;;;;;13.18;100.00;99754.75;8229713;28;19926;-77
2022/10/05 08:57:24;;;;;;;;;;;;;;;13.29;100.00;99760.75;8235339;28;19933;-77
2022/10/05 09:01:44;;;;;;;;;;;;;;;13.42;100.00;99757.13;8230603;28;20032;-77
2022/10/05 09:05:46;;;;;;;;;;;;;;;13.46;100.00;99753.59;8216396;28;19948;-77
2022/10/05 09:09:53;;;;;;;;;;;;;;;13.53;100.00;99751.78;8228184;28;19930;-76
2022/10/05 09:14:20;;;;;;;;;;;;;;;13.56;100.00;99755.22;8217302;28;19964;-77
2022/10/05 09:18:34;;;;;;;;;;;;;;;13.60;99.93;99749.09;8224743;28;19925;-77
2022/10/05 09:22:51;;;;;;;;;;;;;;;13.68;100.00;99750.78;8220082;28;19926;-77
2022/10/05 09:26:52;;;;;;;;;;;;;;;13.77;100.00;99753.25;8236640;28;20845;-77
2022/10/05 09:31:02;;;;;;;;;;;;;;;13.83;99.64;99753.22;8226535;28;19926;-78
2022/10/05 09:35:29;;;;;;;;;;;;;;;13.93;99.07;99751.34;8234587;28;20343;-77
2022/10/05 09:39:50;;;;;;;;;;;;;;;13.96;98.55;99749.53;8217437;28;19925;-77
2022/10/05 09:44:05;;;;;;;;;;;;;;;14.00;98.54;99748.63;8234059;28;20538;-77
2022/10/05 09:48:26;;;;;;;;;;;;;;;14.01;98.17;99744.28;8232408;28;19996;-77
2022/10/05 09:52:55;;;;;;;;;;;;;;;14.15;98.34;99739.72;8233326;28;19930;-78
2022/10/05 09:57:14;;;;;;;;;;;;;;;14.26;98.11;99752.66;8216919;28;19925;-77
2022/10/05 10:01:40;;;;;;;;;;;;;;;14.39;97.66;99752.47;8211945;28;19936;-75
2022/10/05 10:05:48;;;;;;;;;;;;;;;14.45;96.58;99754.16;8211831;28;20652;-78
2022/10/05 10:09:56;;;;;;;;;;;;;;;14.47;96.08;99750.63;8226877;28;20644;-77
2022/10/05 10:14:18;;;;;;;;;;;;;;;14.58;95.74;99753.09;8213794;28;20503;-78
2022/10/05 10:18:37;;;;;;;;;;;;;;;14.58;94.60;99742.66;8189136;28;19926;-77
2022/10/05 10:22:38;;;;;;;;;;;;;;;14.65;94.68;99741.66;8214313;28;19936;-77
2022/10/05 10:27:05;;;;;;;;;;;;;;;14.89;94.43;99732.56;8230373;28;19968;-77
2022/10/05 10:31:24;;;;;;;;;;;;;;;15.26;93.58;99742.38;8223558;28;19926;-78
2022/10/05 10:35:34;;;;;;;;;;;;;;;15.45;90.03;99733.34;8224372;28;19930;-78
2022/10/05 10:39:54;;;;;;;;;;;;;;;15.61;90.45;99724.31;8229340;28;19926;-77
2022/10/05 10:44:15;;;;;;;;;;;;;;;15.93;87.94;99714.94;8227129;28;19936;-77
2022/10/05 10:48:17;;;;;;;;;;;;;;;16.33;86.62;99712.31;8214212;28;20402;-78
2022/10/05 10:52:36;;;;;;;;;;;;;;;16.78;85.68;99717.41;8234952;28;19987;-79
2022/10/05 10:56:57;;;;;;;;;;;;;;;17.01;83.51;99701.97;8229799;28;19922;-78
2022/10/05 11:01:30;;;;;;;;;;;;;;;17.30;82.07;99697.72;8215105;28;20378;-78
2022/10/05 11:05:54;;;;;;;;;;;;;;;17.61;81.35;99687.25;8191428;28;19932;-77
2022/10/05 11:09:55;;;;;;;;;;;;;;;17.92;80.58;99682.84;8229021;28;19922;-77
2022/10/05 11:14:05;;;;;;;;;;;;;;;18.19;78.00;99678.53;8229151;28;19930;-79
2022/10/05 11:18:14;;;;;;;;;;;;;;;18.53;77.34;99674.84;8227331;28;19992;-78
2022/10/05 11:22:22;;;;;;;;;;;;;;;18.61;75.69;99672.81;8214749;28;19929;-78
2022/10/05 11:26:31;;;;;;;;;;;;;;;18.79;75.73;99658.22;8224610;28;19934;-78
2022/10/05 11:30:59;;;;;;;;;;;;;;;19.13;74.74;99664.06;8224532;28;20259;-78
2022/10/05 11:35:19;;;;;;;;;;;;;;;19.38;73.61;99658.78;8203812;28;20351;-78
2022/10/05 11:39:23;;;;;;;;;;;;;;;19.49;72.85;99655.75;8212301;28;19926;-78
2022/10/05 11:43:34;;;;;;;;;;;;;;;19.51;71.12;99654.78;8237908;28;20741;-78
2022/10/05 11:47:54;;;;;;;;;;;;;;;19.76;72.08;99652.16;8212908;28;20268;-77
2022/10/05 11:52:07;;;;;;;;;;;;;;;19.97;70.83;99647.84;8231757;28;19926;-78
2022/10/05 11:56:18;;;;;;;;;;;;;;;20.20;69.75;99639.03;8232166;28;19926;-78
2022/10/05 12:00:20;;;;;;;;;;;;;;;20.34;67.74;99628.78;8232963;28;19926;-77
2022/10/05 12:04:44;;;;;;;;;;;;;;;20.65;68.31;99624.94;8219680;28;20354;-78
2022/10/05 12:08:45;;;;;;;;;;;;;;;20.76;66.42;99622.66;8207020;28;19926;-78
2022/10/05 12:12:50;;;;;;;;;;;;;;;20.83;64.92;99613.59;8232821;28;19953;-78
2022/10/05 12:16:57;;;;;;;;;;;;;;;20.90;64.48;99612.41;8234654;28;19926;-77
2022/10/05 12:21:14;;;;;;;;;;;;;;;21.05;63.11;99605.59;8221972;28;19922;-78
2022/10/05 12:25:15;;;;;;;;;;;;;;;21.12;62.08;99597.31;8233873;28;20590;-77
2022/10/05 12:29:24;;;;;;;;;;;;;;;21.30;62.12;99590.41;8237768;28;19933;-78
2022/10/05 12:33:31;;;;;;;;;;;;;;;21.46;62.29;99595.84;8228996;28;19926;-77
2022/10/05 12:37:46;;;;;;;;;;;;;;;21.47;60.55;99587.00;8222677;28;20090;-79
2022/10/05 12:41:57;;;;;;;;;;;;;;;21.26;59.70;99577.41;8197214;28;19926;-77
2022/10/05 12:46:24;;;;;;;;;;;;;;;21.31;61.50;99583.31;8211305;28;20552;-77
2022/10/05 12:50:41;;;;;;;;;;;;;;;21.41;61.86;99574.94;8214414;28;19963;-77
2022/10/05 12:54:56;;;;;;;;;;;;;;;21.41;60.73;99572.28;8219733;28;20308;-77
2022/10/05 12:59:07;;;;;;;;;;;;;;;21.46;60.65;99574.72;8223790;28;19930;-77
2022/10/05 13:03:16;;;;;;;;;;;;;;;21.50;60.87;99564.84;8195229;28;19930;-77
2022/10/05 13:07:37;;;;;;;;;;;;;;;21.57;60.52;99561.00;8193930;28;20442;-77
2022/10/05 13:11:47;;;;;;;;;;;;;;;21.62;60.70;99554.56;8204027;28;19930;-76
2022/10/05 13:16:04;;;;;;;;;;;;;;;21.76;60.92;99558.38;8201603;28;19935;-76
2022/10/05 13:20:12;;;;;;;;;;;;;;;21.87;61.19;99562.19;8194431;28;19922;-77
2022/10/05 13:24:27;;;;;;;;;;;;;;;21.94;60.14;99566.28;8189725;28;19930;-76
2022/10/05 13:28:33;;;;;;;;;;;;;;;21.81;59.28;99559.00;8196684;28;19938;-77
2022/10/05 13:32:37;;;;;;;;;;;;;;;21.81;60.14;99556.34;8203932;28;20585;-77
2022/10/05 13:37:00;;;;;;;;;;;;;;;21.80;60.78;99552.84;8222578;28;19935;-77
2022/10/05 13:41:05;;;;;;;;;;;;;;;21.87;60.12;99556.91;8237327;28;19929;-76
2022/10/05 13:45:13;;;;;;;;;;;;;;;21.88;60.46;99548.03;8237603;28;19926;-76
2022/10/05 13:49:31;;;;;;;;;;;;;;;21.86;60.30;99549.91;8212705;28;19926;-77
2022/10/05 13:53:32;;;;;;;;;;;;;;;21.83;60.25;99550.06;8215343;28;19986;-77
2022/10/05 13:57:34;;;;;;;;;;;;;;;21.86;61.28;99546.41;8210986;28;19988;-77
2022/10/05 14:01:54;;;;;;;;;;;;;;;21.79;59.97;99534.41;8225973;28;19922;-78
2022/10/05 14:05:57;;;;;;;;;;;;;;;21.76;60.92;99534.56;8214199;28;19925;-77
2022/10/05 14:09:58;;;;;;;;;;;;;;;21.79;61.87;99543.19;8228191;28;19937;-77
2022/10/05 14:14:09;;;;;;;;;;;;;;;21.74;61.03;99547.00;8235713;28;20114;-77
2022/10/05 14:18:21;;;;;;;;;;;;;;;21.67;61.59;99533.22;8229841;28;19930;-77
2022/10/05 14:22:23;;;;;;;;;;;;;;;21.74;62.11;99531.16;8216352;28;19930;-77
2022/10/05 14:26:25;;;;;;;;;;;;;;;21.74;61.91;99525.84;8211071;28;20037;-77
2022/10/05 14:30:27;;;;;;;;;;;;;;;21.77;61.37;99526.56;8231021;28;20345;-77
2022/10/05 14:34:30;;;;;;;;;;;;;;;21.77;62.24;99523.06;8208597;28;19937;-78
2022/10/05 14:39:05;;;;;;;;;;;;;;;21.73;62.21;99508.28;8227032;28;19926;-78
2022/10/05 14:43:12;;;;;;;;;;;;;;;21.68;62.37;99513.78;8203132;28;19937;-77
2022/10/05 14:47:15;;;;;;;;;;;;;;;21.62;62.31;99519.34;8232990;28;19925;-75
2022/10/05 14:51:27;;;;;;;;;;;;;;;21.66;62.67;99520.91;8228195;28;19930;-76
2022/10/05 14:55:37;;;;;;;;;;;;;;;21.57;62.50;99516.09;8226140;28;20374;-77
2022/10/05 15:00:09;;;;;;;;;;;;;;;21.56;62.49;99512.59;8218553;28;19933;-77
2022/10/05 15:04:22;;;;;;;;;;;;;;;21.55;61.54;99510.03;8211076;28;19926;-77
2022/10/05 15:08:24;;;;;;;;;;;;;;;21.48;62.54;99527.06;8227252;28;20552;-77
2022/10/05 15:12:30;;;;;;;;;;;;;;;21.48;63.09;99521.78;8207795;28;19925;-77
2022/10/05 15:16:33;;;;;;;;;;;;;;;21.37;62.02;99528.44;8227352;28;20069;-77
2022/10/05 15:20:53;;;;;;;;;;;;;;;21.40;62.58;99530.09;8225083;28;19925;-78
2022/10/05 15:25:07;;;;;;;;;;;;;;;21.46;62.99;99521.00;8221427;28;20344;-79
2022/10/05 15:29:12;;;;;;;;;;;;;;;21.51;61.69;99526.94;8229811;28;19929;-78
2022/10/05 15:33:23;;;;;;;;;;;;;;;21.65;62.56;99525.34;8219996;28;19989;-79
2022/10/05 15:37:44;;;;;;;;;;;;;;;21.68;61.43;99527.00;8203156;28;20578;-79
2022/10/05 15:41:54;;;;;;;;;;;;;;;21.87;62.09;99533.09;8230944;28;19938;-79
2022/10/05 15:46:16;;;;;;;;;;;;;;;22.21;61.22;99529.69;8226605;28;19999;-78
2022/10/05 15:50:21;;;;;;;;;;;;;;;22.43;59.49;99528.63;8223579;28;19937;-78
2022/10/05 15:54:41;;;;;;;;;;;;;;;24.29;55.46;99519.38;8209097;28;19934;-78
2022/10/05 15:58:47;;;;;;;;;;;;;;;23.88;54.15;99523.50;8238596;28;19933;-79
2022/10/05 16:03:01;;;;;;;;;;;;;;;22.50;58.13;99530.03;8228396;28;19925;-78
2022/10/05 16:11:55;;;;;;;;;;;;;;;21.10;63.10;99541.09;8232208;28;19936;-77
2022/10/05 16:16:15;;;;;;;;;;;;;;;20.64;64.85;99542.22;8229578;28;19925;-77
2022/10/05 16:20:36;;;;;;;;;;;;;;;20.32;65.86;99545.38;8236205;28;20684;-78
2022/10/05 16:24:40;;;;;;;;;;;;;;;20.06;67.09;99546.44;8214289;28;19930;-78
2022/10/05 16:29:10;;;;;;;;;;;;;;;19.83;67.89;99553.50;8219000;28;19926;-78
2022/10/05 16:33:20;;;;;;;;;;;;;;;19.63;69.12;99555.19;8194697;28;19976;-78
2022/10/05 16:37:34;;;;;;;;;;;;;;;19.47;68.86;99568.91;8204564;28;19980;-78
2022/10/05 16:41:50;;;;;;;;;;;;;;;19.35;69.48;99573.75;8201546;28;19933;-78
2022/10/05 16:46:01;;;;;;;;;;;;;;;19.19;69.66;99563.78;8201290;28;19926;-77
2022/10/05 16:50:12;;;;;;;;;;;;;;;19.07;70.31;99572.16;8204099;28;19927;-77
2022/10/05 16:54:13;;;;;;;;;;;;;;;18.94;70.52;99573.50;8202267;28;20319;-78
2022/10/05 16:58:22;;;;;;;;;;;;;;;18.86;70.77;99584.31;8195941;28;19926;-77
2022/10/05 17:02:32;;;;;;;;;;;;;;;18.77;71.12;99587.25;8181380;28;20545;-78
2022/10/05 17:06:42;;;;;;;;;;;;;;;18.65;71.29;99593.78;8209870;28;20016;-77
2022/10/05 17:11:00;;;;;;;;;;;;;;;18.55;71.88;99592.34;8196122;28;19936;-77
2022/10/05 17:15:17;;;;;;;;;;;;;;;18.47;72.44;99596.13;8199801;28;19926;-77
2022/10/05 17:19:31;;;;;;;;;;;;;;;18.34;72.87;99598.34;8199462;28;20020;-76
2022/10/05 17:23:52;;;;;;;;;;;;;;;18.22;73.62;99610.09;8217516;28;19926;-77
2022/10/05 17:27:55;;;;;;;;;;;;;;;18.16;73.83;99610.31;8214217;28;20325;-77
2022/10/05 17:32:03;;;;;;;;;;;;;;;18.06;74.26;99614.13;8215086;28;19926;-76
2022/10/05 17:36:25;;;;;;;;;;;;;;;17.96;74.72;99624.06;8193173;28;19926;-76
2022/10/05 17:40:30;;;;;;;;;;;;;;;17.90;75.06;99624.22;8216651;28;19938;-77
2022/10/05 17:44:38;;;;;;;;;;;;;;;17.81;75.77;99637.66;8202243;28;19932;-76
2022/10/05 17:48:53;;;;;;;;;;;;;;;17.69;76.33;99645.91;8196628;28;19985;-77
2022/10/05 17:57:35;;;;;;;;;;;;;;;17.53;77.24;99659.44;8196969;28;20292;-77
2022/10/05 18:01:38;;;;;;;;;;;;;;;17.37;78.07;99660.75;8199221;28;19932;-77
2022/10/05 18:05:39;;;;;;;;;;;;;;;17.22;78.73;99661.16;8187645;28;19976;-76
2022/10/05 18:09:58;;;;;;;;;;;;;;;17.14;79.12;99666.63;8200347;28;19926;-77
2022/10/05 18:14:28;;;;;;;;;;;;;;;17.05;79.94;99679.13;8187223;28;20029;-77
2022/10/05 18:18:39;;;;;;;;;;;;;;;16.94;80.26;99675.94;8178519;28;19956;-77
2022/10/05 18:22:45;;;;;;;;;;;;;;;16.87;80.96;99683.09;8206304;28;19930;-76
2022/10/05 18:26:46;;;;;;;;;;;;;;;16.80;81.42;99681.53;8209637;28;20361;-76
2022/10/05 18:30:51;;;;;;;;;;;;;;;16.75;81.77;99694.75;8191209;28;20009;-76
2022/10/05 18:34:58;;;;;;;;;;;;;;;16.66;82.34;99699.31;8215577;28;20391;-77
2022/10/05 18:39:05;;;;;;;;;;;;;;;16.57;82.39;99700.41;8227620;28;19926;-77
2022/10/05 18:43:12;;;;;;;;;;;;;;;16.45;82.93;99698.94;8229440;28;19929;-77
2022/10/05 18:47:36;;;;;;;;;;;;;;;16.32;83.67;99708.84;8209760;28;19929;-76
2022/10/05 18:51:53;;;;;;;;;;;;;;;16.19;84.44;99714.41;8232034;28;19926;-77
2022/10/05 18:56:13;;;;;;;;;;;;;;;16.06;85.18;99719.03;8228870;28;20199;-76
2022/10/05 19:00:19;;;;;;;;;;;;;;;15.96;86.14;99717.50;8237154;28;19925;-77
2022/10/05 19:04:30;;;;;;;;;;;;;;;15.83;86.53;99727.38;8203823;28;19980;-77
2022/10/05 19:08:31;;;;;;;;;;;;;;;15.70;87.19;99739.84;8219099;28;19972;-76
2022/10/05 19:12:33;;;;;;;;;;;;;;;15.66;87.48;99753.03;8228157;28;19936;-77
2022/10/05 19:16:52;;;;;;;;;;;;;;;15.74;87.99;99758.09;8228371;28;19926;-76
2022/10/05 19:20:56;;;;;;;;;;;;;;;15.80;87.74;99769.34;8217894;28;19966;-76
2022/10/05 19:25:05;;;;;;;;;;;;;;;15.82;87.87;99771.94;8233272;28;20037;-76
2022/10/05 19:29:21;;;;;;;;;;;;;;;15.88;88.14;99775.28;8234386;28;19930;-77
2022/10/05 19:33:41;;;;;;;;;;;;;;;15.96;87.44;99778.59;8223089;28;20350;-77
2022/10/05 19:37:49;;;;;;;;;;;;;;;16.11;86.83;99784.44;8232783;28;19922;-77
2022/10/05 19:42:03;;;;;;;;;;;;;;;16.17;86.26;99781.69;8234025;28;20008;-77
2022/10/05 19:46:07;;;;;;;;;;;;;;;16.24;85.60;99786.75;8227053;28;19929;-77
2022/10/05 19:50:25;;;;;;;;;;;;;;;16.22;85.89;99796.41;8229331;28;19965;-76
2022/10/05 19:54:28;;;;;;;;;;;;;;;16.20;87.16;99813.06;8208189;28;20113;-77
2022/10/05 19:58:37;;;;;;;;;;;;;;;16.21;87.34;99823.53;8211241;28;19929;-77
2022/10/05 20:02:38;;;;;;;;;;;;;;;16.23;86.83;99841.81;8215035;28;20232;-76
2022/10/05 20:06:42;;;;;;;;;;;;;;;16.26;86.31;99860.09;8224246;28;19936;-77
2022/10/05 20:10:44;;;;;;;;;;;;;;;16.14;86.03;99868.19;8224679;28;19988;-77
2022/10/05 20:23:45;;;;;;;;;;;;;;;15.70;88.69;99882.97;8219330;28;20266;-76
2022/10/05 20:27:47;;;;;;;;;;;;;;;15.55;89.27;99886.69;8239074;28;19925;-77
2022/10/05 20:31:49;;;;;;;;;;;;;;;15.41;89.83;99886.91;8233846;28;19926;-77
2022/10/05 20:35:52;;;;;;;;;;;;;;;15.26;90.29;99900.25;8241822;28;20020;-75
2022/10/05 20:39:54;;;;;;;;;;;;;;;15.13;90.85;99900.44;8219223;28;19926;-77
2022/10/05 20:43:55;;;;;;;;;;;;;;;15.01;91.18;99902.34;8239409;28;19988;-77
2022/10/05 20:47:56;;;;;;;;;;;;;;;14.91;91.74;99916.44;8242948;28;19929;-77
2022/10/05 20:51:58;;;;;;;;;;;;;;;14.79;92.23;99920.09;8241852;28;19926;-76
2022/10/05 20:56:01;;;;;;;;;;;;;;;14.71;92.45;99918.44;8238968;28;19981;-78
2022/10/05 21:00:02;;;;;;;;;;;;;;;14.63;92.62;99920.28;8214526;28;19925;-76
2022/10/05 21:04:05;;;;;;;;;;;;;;;14.52;92.93;99921.28;8214703;28;19926;-77
2022/10/05 21:08:07;;;;;;;;;;;;;;;14.44;93.39;99915.28;8225885;28;19997;-76
2022/10/05 21:12:08;;;;;;;;;;;;;;;14.34;93.81;99928.44;8232854;28;20383;-76
2022/10/05 21:16:12;;;;;;;;;;;;;;;14.28;94.40;99931.13;8228619;28;20379;-76
2022/10/05 21:20:13;;;;;;;;;;;;;;;14.20;94.38;99944.28;8234776;28;19926;-76
2022/10/05 21:24:16;;;;;;;;;;;;;;;14.16;95.15;99940.81;8232102;28;19934;-76
2022/10/05 21:28:17;;;;;;;;;;;;;;;14.19;96.27;99938.19;8211834;28;19981;-76
2022/10/05 21:32:18;;;;;;;;;;;;;;;14.26;97.61;99941.59;8210353;28;19926;-76
2022/10/05 21:36:20;;;;;;;;;;;;;;;14.31;98.08;99942.41;8193290;28;20215;-76
2022/10/05 21:40:25;;;;;;;;;;;;;;;14.31;97.99;99934.56;8196647;28;20234;-76
2022/10/05 21:44:26;;;;;;;;;;;;;;;14.29;97.89;99938.94;8198643;28;20501;-76
2022/10/05 21:48:29;;;;;;;;;;;;;;;14.21;97.61;99946.00;8225224;28;20264;-76
2022/10/05 21:52:32;;;;;;;;;;;;;;;14.20;98.06;99946.88;8202003;28;19926;-76
2022/10/05 21:56:35;;;;;;;;;;;;;;;14.17;98.51;99946.88;8197542;28;19949;-76
2022/10/05 22:00:37;;;;;;;;;;;;;;;14.13;98.22;99947.81;8190047;28;19930;-76